createdAt,value
2018-01-16T00:00:56.649Z,11.00
2018-01-16T00:03:27.370Z,11.10
2018-01-16T00:05:57.146Z,11.10
2018-01-16T00:08:25.583Z,11.10
2018-01-16T00:10:54.770Z,11.20
2018-01-16T00:13:24.737Z,11.20
2018-01-16T00:15:53.112Z,11.20
2018-01-16T00:18:21.547Z,11.20
2018-01-16T00:20:50.791Z,11.20
2018-01-16T00:23:19.112Z,11.20
2018-01-16T00:25:47.486Z,11.30
2018-01-16T00:28:15.771Z,11.30
2018-01-16T00:30:46.459Z,11.30
2018-01-16T00:33:14.936Z,11.30
2018-01-16T00:35:43.318Z,11.30
2018-01-16T00:38:18.680Z,11.20
2018-01-16T00:40:47.076Z,11.20
2018-01-16T00:43:15.448Z,11.20
2018-01-16T00:45:44.106Z,11.20
2018-01-16T00:48:19.694Z,11.10
2018-01-16T00:50:48.078Z,11.10
2018-01-16T00:53:16.507Z,11.10
2018-01-16T00:55:44.990Z,11.00
2018-01-16T00:58:13.364Z,11.00
2018-01-16T01:00:41.747Z,11.10
2018-01-16T01:03:10.226Z,11.00
2018-01-16T01:05:38.881Z,11.00
2018-01-16T01:08:08.006Z,11.00
2018-01-16T01:10:39.971Z,11.00
2018-01-16T01:13:08.937Z,11.00
2018-01-16T01:15:38.160Z,10.80
2018-01-16T01:18:06.538Z,10.80
2018-01-16T01:20:46.791Z,10.80
2018-01-16T01:23:15.214Z,10.80
2018-01-16T01:25:45.191Z,10.70
2018-01-16T01:28:13.485Z,10.70
2018-01-16T01:30:49.419Z,10.70
2018-01-16T01:33:17.714Z,10.60
2018-01-16T01:35:46.108Z,10.70
2018-01-16T01:38:19.219Z,10.70
2018-01-16T01:40:47.565Z,10.70
2018-01-16T01:43:16.021Z,10.70
2018-01-16T01:45:45.461Z,10.80
2018-01-16T01:48:13.831Z,10.80
2018-01-16T01:50:42.453Z,10.80
2018-01-16T01:53:11.617Z,10.80
2018-01-16T01:55:41.804Z,10.80
2018-01-16T01:58:10.221Z,10.80
2018-01-16T02:00:38.872Z,10.80
2018-01-16T02:03:07.352Z,10.60
2018-01-16T02:05:36.141Z,10.50
2018-01-16T02:08:04.625Z,10.40
2018-01-16T02:10:32.995Z,10.50
2018-01-16T02:13:01.988Z,10.60
2018-01-16T02:15:31.301Z,11.00
2018-01-16T02:17:59.769Z,11.20
2018-01-16T02:20:28.255Z,11.50
2018-01-16T02:22:56.629Z,11.60
2018-01-16T02:25:25.377Z,11.80
2018-01-16T02:27:54.513Z,12.10
2018-01-16T02:30:23.042Z,12.00
2018-01-16T02:32:51.582Z,12.10
2018-01-16T02:35:19.956Z,12.20
2018-01-16T02:37:49.869Z,12.30
2018-01-16T02:40:18.285Z,12.30
2018-01-16T02:42:46.831Z,12.30
2018-01-16T02:45:15.314Z,12.30
2018-01-16T02:47:58.781Z,12.30
2018-01-16T02:50:27.226Z,12.30
2018-01-16T02:52:55.630Z,12.20
2018-01-16T02:55:24.001Z,12.20
2018-01-16T02:57:52.310Z,12.10
2018-01-16T03:00:20.650Z,12.10
2018-01-16T03:02:55.073Z,12.10
2018-01-16T03:05:23.537Z,12.00
2018-01-16T03:07:52.258Z,12.00
2018-01-16T03:10:20.702Z,11.90
2018-01-16T03:12:49.182Z,12.00
2018-01-16T03:15:17.665Z,11.90
2018-01-16T03:17:49.936Z,11.90
2018-01-16T03:20:18.241Z,11.80
2018-01-16T03:22:46.636Z,11.80
2018-01-16T03:25:17.608Z,11.80
2018-01-16T03:27:46.825Z,11.80
2018-01-16T03:30:15.307Z,11.80
2018-01-16T03:32:43.786Z,11.90
2018-01-16T03:35:18.452Z,11.90
2018-01-16T03:37:46.791Z,12.00
2018-01-16T03:40:15.225Z,12.00
2018-01-16T03:42:43.695Z,11.90
2018-01-16T03:45:13.565Z,11.90
2018-01-16T03:47:41.985Z,11.90
2018-01-16T03:50:12.475Z,11.90
2018-01-16T03:52:40.728Z,11.90
2018-01-16T03:55:14.687Z,11.90
2018-01-16T03:57:43.141Z,12.00
2018-01-16T04:00:11.445Z,11.90
2018-01-16T04:02:39.918Z,11.90
2018-01-16T04:05:08.302Z,11.90
2018-01-16T04:07:36.754Z,12.00
2018-01-16T04:10:05.181Z,11.90
2018-01-16T04:12:34.166Z,11.90
2018-01-16T04:15:14.812Z,11.70
2018-01-16T04:17:43.271Z,11.70
2018-01-16T04:20:11.675Z,11.80
2018-01-16T04:22:40.060Z,11.80
2018-01-16T04:25:10.047Z,11.80
2018-01-16T04:27:38.541Z,11.80
2018-01-16T04:30:20.627Z,11.80
2018-01-16T04:32:49.414Z,11.70
2018-01-16T04:35:17.825Z,11.60
2018-01-16T04:37:46.273Z,11.60
2018-01-16T04:40:14.602Z,11.60
2018-01-16T04:42:42.928Z,11.60
2018-01-16T04:45:11.407Z,11.60
2018-01-16T04:47:39.733Z,11.70
2018-01-16T04:50:09.702Z,11.60
2018-01-16T04:52:38.041Z,11.60
2018-01-16T04:55:07.280Z,11.50
2018-01-16T04:57:35.758Z,11.50
2018-01-16T05:00:05.741Z,11.50
2018-01-16T05:02:34.973Z,11.40
2018-01-16T05:05:03.455Z,11.40
2018-01-16T05:07:31.942Z,11.40
2018-01-16T05:10:00.417Z,11.40
2018-01-16T05:12:28.743Z,11.30
2018-01-16T05:14:58.832Z,11.30
2018-01-16T05:17:27.234Z,11.30
2018-01-16T05:19:55.770Z,11.40
2018-01-16T05:22:24.188Z,11.30
2018-01-16T05:25:04.212Z,11.20
2018-01-16T05:27:32.521Z,11.20
2018-01-16T05:30:01.062Z,11.20
2018-01-16T05:32:42.981Z,11.20
2018-01-16T05:35:17.476Z,11.40
2018-01-16T05:37:47.335Z,11.50
2018-01-16T05:40:15.887Z,11.50
2018-01-16T05:42:44.356Z,11.60
2018-01-16T05:45:15.017Z,11.60
2018-01-16T05:47:48.789Z,11.60
2018-01-16T05:50:17.128Z,11.70
2018-01-16T05:52:45.589Z,11.70
2018-01-16T05:55:13.977Z,11.70
2018-01-16T05:57:42.310Z,11.90
2018-01-16T06:00:10.686Z,11.90
2018-01-16T06:02:39.010Z,12.00
2018-01-16T06:05:07.394Z,12.00
2018-01-16T06:07:36.596Z,12.00
2018-01-16T06:10:05.838Z,12.10
2018-01-16T06:12:34.320Z,12.10
2018-01-16T06:15:22.198Z,12.10
2018-01-16T06:17:50.733Z,12.20
2018-01-16T06:20:19.215Z,12.20
2018-01-16T06:22:54.967Z,12.20
2018-01-16T06:25:23.341Z,12.30
2018-01-16T06:27:51.827Z,12.30
2018-01-16T06:30:20.311Z,12.40
2018-01-16T06:32:48.686Z,12.30
2018-01-16T06:35:17.176Z,12.30
2018-01-16T06:37:45.646Z,12.20
2018-01-16T06:40:14.071Z,12.20
2018-01-16T06:42:42.605Z,12.20
2018-01-16T06:45:10.986Z,12.20
2018-01-16T06:47:40.715Z,12.30
2018-01-16T06:50:09.395Z,12.20
2018-01-16T06:53:08.334Z,12.20
2018-01-16T06:55:45.048Z,12.10
2018-01-16T06:58:13.402Z,12.10
2018-01-16T07:00:41.912Z,12.00
2018-01-16T07:03:10.257Z,12.00
2018-01-16T07:05:44.544Z,12.00
2018-01-16T07:08:12.885Z,12.00
2018-01-16T07:10:41.204Z,12.00
2018-01-16T07:13:11.724Z,12.00
2018-01-16T07:15:41.705Z,12.00
2018-01-16T07:18:17.349Z,12.00
2018-01-16T07:20:45.848Z,12.00
2018-01-16T07:23:14.421Z,12.00
2018-01-16T07:25:42.798Z,12.00
2018-01-16T07:28:11.273Z,12.10
2018-01-16T07:30:39.696Z,12.30
2018-01-16T07:33:09.546Z,12.40
2018-01-16T07:35:38.881Z,12.50
2018-01-16T07:38:09.196Z,12.50
2018-01-16T07:40:37.561Z,12.70
2018-01-16T07:43:07.385Z,12.90
2018-01-16T07:45:35.790Z,12.80
2018-01-16T07:48:04.246Z,12.90
2018-01-16T07:50:32.658Z,13.10
2018-01-16T07:53:01.101Z,13.10
2018-01-16T07:55:29.585Z,13.10
2018-01-16T07:57:58.713Z,13.40
2018-01-16T08:00:27.266Z,13.40
2018-01-16T08:02:55.743Z,13.60
2018-01-16T08:05:24.222Z,13.80
2018-01-16T08:07:53.626Z,14.40
2018-01-16T08:10:27.372Z,14.40
2018-01-16T08:12:57.246Z,15.00
2018-01-16T08:15:25.719Z,15.00
2018-01-16T08:17:54.716Z,14.90
2018-01-16T08:20:23.715Z,15.10
2018-01-16T08:22:52.599Z,15.20
2018-01-16T08:25:28.802Z,15.20
2018-01-16T08:27:58.274Z,15.60
2018-01-16T08:30:27.254Z,15.60
2018-01-16T08:32:55.684Z,15.90
2018-01-16T08:35:25.654Z,16.50
2018-01-16T08:37:54.129Z,16.50
2018-01-16T08:40:28.391Z,16.30
2018-01-16T08:42:56.929Z,16.10
2018-01-16T08:45:25.410Z,16.30
2018-01-16T08:47:53.890Z,16.30
2018-01-16T08:50:22.371Z,16.20
2018-01-16T08:52:50.828Z,16.20
2018-01-16T08:55:20.088Z,16.70
2018-01-16T08:57:48.550Z,16.70
2018-01-16T09:00:17.012Z,16.90
2018-01-16T09:02:45.552Z,17.20
2018-01-16T09:05:15.408Z,17.50
2018-01-16T09:07:43.735Z,17.40
2018-01-16T09:10:13.629Z,16.70
2018-01-16T09:12:47.100Z,16.70
2018-01-16T09:15:15.582Z,17.00
2018-01-16T09:17:44.272Z,17.10
2018-01-16T09:20:13.064Z,17.80
2018-01-16T09:22:41.435Z,17.90
2018-01-16T09:25:10.216Z,17.70
2018-01-16T09:27:38.748Z,17.80
2018-01-16T09:30:14.830Z,18.30
2018-01-16T09:32:44.474Z,17.90
2018-01-16T09:35:24.673Z,17.90
2018-01-16T09:37:53.204Z,17.90
2018-01-16T09:40:22.244Z,18.10
2018-01-16T09:42:52.055Z,18.50
2018-01-16T09:45:33.226Z,18.50
2018-01-16T09:48:03.560Z,18.60
2018-01-16T09:50:43.015Z,18.70
2018-01-16T09:53:12.299Z,18.80
2018-01-16T09:55:43.256Z,18.80
2018-01-16T09:58:13.409Z,18.80
2018-01-16T10:00:41.901Z,18.80
2018-01-16T10:03:10.376Z,19.10
2018-01-16T10:05:38.875Z,19.60
2018-01-16T10:08:08.915Z,20.00
2018-01-16T10:10:37.976Z,19.80
2018-01-16T10:13:06.668Z,19.90
2018-01-16T10:15:35.133Z,19.90
2018-01-16T10:18:03.991Z,19.40
2018-01-16T10:20:45.303Z,20.00
2018-01-16T10:23:13.732Z,19.50
2018-01-16T10:25:42.100Z,19.60
2018-01-16T10:28:10.541Z,20.20
2018-01-16T10:30:58.121Z,20.10
2018-01-16T10:33:33.489Z,19.40
2018-01-16T10:36:02.818Z,20.00
2018-01-16T10:38:31.713Z,20.00
2018-01-16T10:41:00.548Z,19.80
2018-01-16T10:43:39.623Z,19.50
2018-01-16T10:46:08.004Z,19.40
2018-01-16T10:48:36.416Z,19.50
2018-01-16T10:51:05.949Z,19.70
2018-01-16T10:53:35.698Z,20.50
2018-01-16T10:56:04.195Z,20.90
2018-01-16T10:58:32.660Z,20.90
2018-01-16T11:01:02.420Z,20.80
2018-01-16T11:03:32.797Z,22.00
2018-01-16T11:06:03.942Z,21.90
2018-01-16T11:08:32.625Z,22.10
2018-01-16T11:11:01.119Z,22.00
2018-01-16T11:13:29.590Z,22.40
2018-01-16T11:15:58.220Z,21.30
2018-01-16T11:18:28.595Z,21.70
2018-01-16T11:20:57.109Z,22.80
2018-01-16T11:23:25.557Z,23.20
2018-01-16T11:25:53.925Z,22.70
2018-01-16T11:28:22.840Z,23.70
2018-01-16T11:30:51.619Z,23.80
2018-01-16T11:33:20.100Z,24.20
2018-01-16T11:35:48.477Z,24.30
2018-01-16T11:38:16.957Z,24.30
2018-01-16T11:40:45.334Z,23.60
2018-01-16T11:43:13.966Z,24.30
2018-01-16T11:45:44.057Z,23.40
2018-01-16T11:48:12.548Z,23.40
2018-01-16T11:50:41.292Z,23.30
2018-01-16T11:53:10.129Z,23.40
2018-01-16T11:55:38.550Z,22.70
2018-01-16T11:58:07.774Z,23.20
2018-01-16T12:00:36.356Z,23.10
2018-01-16T12:03:04.780Z,23.90
2018-01-16T12:05:34.788Z,24.50
2018-01-16T12:08:03.175Z,24.50
2018-01-16T12:10:32.615Z,22.60
2018-01-16T12:13:01.182Z,22.60
2018-01-16T12:15:30.524Z,22.40
2018-01-16T12:17:58.936Z,22.30
2018-01-16T12:20:27.383Z,21.90
2018-01-16T12:22:55.814Z,22.00
2018-01-16T12:25:46.810Z,21.70
2018-01-16T12:28:16.698Z,21.70
2018-01-16T12:30:45.352Z,22.10
2018-01-16T12:33:13.845Z,22.20
2018-01-16T12:35:55.146Z,21.80
2018-01-16T12:38:23.612Z,22.00
2018-01-16T12:40:52.097Z,22.10
2018-01-16T12:43:24.260Z,21.40
2018-01-16T12:45:53.399Z,20.70
2018-01-16T12:48:23.192Z,20.70
2018-01-16T12:50:52.570Z,20.80
2018-01-16T12:53:20.952Z,20.80
2018-01-16T12:56:02.796Z,21.70
2018-01-16T12:58:31.159Z,21.60
2018-01-16T13:01:06.109Z,21.80
2018-01-16T13:03:35.354Z,21.60
2018-01-16T13:06:03.935Z,21.60
2018-01-16T13:08:33.949Z,20.40
2018-01-16T13:11:17.142Z,21.30
2018-01-16T13:13:45.581Z,22.00
2018-01-16T13:16:13.940Z,21.80
2018-01-16T13:18:42.530Z,21.40
2018-01-16T13:21:10.993Z,21.40
2018-01-16T13:23:39.578Z,21.60
2018-01-16T13:26:08.026Z,21.10
2018-01-16T13:28:37.256Z,21.20
2018-01-16T13:31:20.429Z,21.20
2018-01-16T13:33:55.563Z,21.70
2018-01-16T13:36:25.482Z,22.70
2018-01-16T13:38:55.045Z,22.50
2018-01-16T13:41:24.648Z,23.00
2018-01-16T13:43:53.066Z,23.00
2018-01-16T13:46:21.426Z,23.50
2018-01-16T13:48:49.887Z,23.70
2018-01-16T13:51:18.769Z,23.60
2018-01-16T13:53:47.359Z,23.40
2018-01-16T13:56:15.756Z,23.50
2018-01-16T13:58:44.440Z,24.50
2018-01-16T14:01:12.901Z,24.90
2018-01-16T14:03:48.711Z,25.20
2018-01-16T14:06:17.892Z,26.40
2018-01-16T14:08:46.329Z,26.40
2018-01-16T14:11:14.811Z,25.80
2018-01-16T14:13:46.383Z,24.50
2018-01-16T14:16:14.851Z,24.00
2018-01-16T14:18:44.147Z,23.60
2018-01-16T14:21:12.588Z,23.80
2018-01-16T14:23:41.879Z,23.90
2018-01-16T14:26:10.305Z,23.90
2018-01-16T14:28:38.792Z,22.80
2018-01-16T14:31:07.475Z,23.10
2018-01-16T14:33:41.812Z,23.90
2018-01-16T14:36:10.273Z,24.50
2018-01-16T14:38:38.604Z,24.50
2018-01-16T14:41:08.566Z,23.30
2018-01-16T14:43:43.396Z,23.40
2018-01-16T14:46:11.848Z,23.50
2018-01-16T14:48:41.029Z,23.10
2018-01-16T14:51:10.268Z,23.80
2018-01-16T14:53:43.567Z,23.80
2018-01-16T14:56:12.043Z,24.60
2018-01-16T14:58:40.460Z,24.50
2018-01-16T15:01:08.964Z,24.50
2018-01-16T15:03:38.386Z,26.60
2018-01-16T15:06:06.942Z,26.60
2018-01-16T15:08:36.098Z,27.20
2018-01-16T15:11:04.574Z,26.70
2018-01-16T15:13:33.158Z,27.00
2018-01-16T15:16:01.533Z,26.70
2018-01-16T15:18:39.041Z,26.90
2018-01-16T15:21:08.734Z,27.10
2018-01-16T15:23:37.316Z,27.50
2018-01-16T15:26:05.706Z,27.50
2018-01-16T15:28:35.422Z,26.90
2018-01-16T15:31:03.993Z,26.50
2018-01-16T15:33:32.418Z,25.90
2018-01-16T15:36:00.983Z,25.40
2018-01-16T15:38:33.080Z,25.10
2018-01-16T15:41:15.014Z,24.50
2018-01-16T15:43:43.899Z,24.50
2018-01-16T15:46:12.323Z,24.40
2018-01-16T15:48:49.070Z,24.10
2018-01-16T15:51:17.539Z,24.10
2018-01-16T15:53:45.912Z,23.80
2018-01-16T15:56:14.401Z,23.80
2018-01-16T15:58:49.426Z,23.60
2018-01-16T16:01:18.428Z,23.40
2018-01-16T16:03:46.902Z,23.00
2018-01-16T16:06:15.382Z,22.70
2018-01-16T16:08:44.789Z,22.40
2018-01-16T16:11:13.172Z,21.90
2018-01-16T16:13:42.843Z,21.80
2018-01-16T16:16:11.992Z,19.70
2018-01-16T16:18:52.594Z,19.70
2018-01-16T16:21:21.750Z,19.00
2018-01-16T16:23:50.265Z,19.00
2018-01-16T16:26:19.548Z,18.70
2018-01-16T16:28:47.921Z,18.30
2018-01-16T16:31:16.373Z,17.90
2018-01-16T16:33:45.205Z,17.60
2018-01-16T16:36:15.661Z,17.30
2018-01-16T16:38:44.114Z,17.20
2018-01-16T16:43:55.884Z,17.50
2018-01-16T16:46:24.255Z,17.40
2018-01-16T16:48:52.736Z,17.40
2018-01-16T16:51:21.245Z,17.30
2018-01-16T16:53:49.646Z,17.10
2018-01-16T16:56:18.414Z,17.00
2018-01-16T16:58:47.767Z,16.80
2018-01-16T17:01:17.297Z,16.70
2018-01-16T17:03:45.771Z,16.70
2018-01-16T17:06:15.381Z,16.70
2018-01-16T17:08:43.802Z,16.40
2018-01-16T17:11:12.355Z,16.20
2018-01-16T17:13:47.430Z,16.00
2018-01-16T17:16:18.175Z,15.70
2018-01-16T17:18:48.172Z,15.60
2018-01-16T17:21:16.540Z,15.60
2018-01-16T17:23:45.418Z,15.30
2018-01-16T17:26:15.414Z,15.10
2018-01-16T17:28:50.244Z,14.90
2018-01-16T17:31:18.889Z,14.70
2018-01-16T17:33:48.536Z,14.50
2018-01-16T17:36:17.121Z,14.40
2018-01-16T17:38:45.504Z,14.30
2018-01-16T17:41:13.912Z,14.20
2018-01-16T17:43:42.247Z,14.20
2018-01-16T17:46:12.271Z,13.90
2018-01-16T17:48:40.817Z,13.90
2018-01-16T17:51:10.056Z,13.80
2018-01-16T17:53:38.517Z,13.80
2018-01-16T17:56:08.905Z,13.70
2018-01-16T17:58:37.878Z,13.70
2018-01-16T18:01:06.224Z,13.60
2018-01-16T18:03:35.222Z,13.50
2018-01-16T18:06:04.935Z,13.60
2018-01-16T18:08:33.453Z,13.50
2018-01-16T18:11:01.789Z,13.50
2018-01-16T18:13:30.451Z,13.40
2018-01-16T18:15:58.908Z,13.40
2018-01-16T18:18:27.299Z,13.40
2018-01-16T18:20:56.687Z,13.40
2018-01-16T18:23:26.585Z,13.30
2018-01-16T18:25:55.093Z,13.30
2018-01-16T18:28:24.367Z,13.30
2018-01-16T18:30:53.690Z,13.30
2018-01-16T18:33:23.112Z,13.10
2018-01-16T18:35:52.260Z,13.10
2018-01-16T18:38:21.211Z,13.10
2018-01-16T18:40:49.633Z,13.10
2018-01-16T18:43:18.164Z,13.20
2018-01-16T18:45:48.008Z,13.10
2018-01-16T18:48:16.609Z,13.10
2018-01-16T18:50:45.119Z,13.10
2018-01-16T18:53:14.310Z,13.10
2018-01-16T18:55:42.853Z,13.10
2018-01-16T18:58:17.200Z,13.00
2018-01-16T19:00:47.292Z,13.20
2018-01-16T19:03:16.753Z,13.10
2018-01-16T19:05:46.599Z,13.00
2018-01-16T19:08:16.059Z,13.00
2018-01-16T19:10:54.879Z,12.90
2018-01-16T19:13:37.347Z,12.90
2018-01-16T19:16:05.919Z,12.90
2018-01-16T19:18:35.559Z,12.90
2018-01-16T19:21:04.222Z,13.00
2018-01-16T19:23:32.937Z,13.40
2018-01-16T19:26:05.240Z,14.60
